sensor_id;sensor_type;location;lat;lon;timestamp;P1;durP1;ratioP1;P2;durP2;ratioP2
12048;SDS011;6085;49.452;8.502;2023-08-21T00:01:28;4.18;;;3.13;;
12048;SDS011;6085;49.452;8.502;2023-08-21T00:05:30;2.88;;;2.53;;
12048;SDS011;6085;49.452;8.502;2023-08-21T00:09:33;2.67;;;2.47;;
12048;SDS011;6085;49.452;8.502;2023-08-21T00:13:35;3.58;;;3.25;;
12048;SDS011;6085;49.452;8.502;2023-08-21T00:17:37;3.95;;;3.42;;
12048;SDS011;6085;49.452;8.502;2023-08-21T00:21:39;3.33;;;3.03;;
12048;SDS011;6085;49.452;8.502;2023-08-21T00:25:45;3.65;;;2.63;;
12048;SDS011;6085;49.452;8.502;2023-08-21T00:29:48;3.13;;;2.83;;
12048;SDS011;6085;49.452;8.502;2023-08-21T00:33:50;3.17;;;2.88;;
12048;SDS011;6085;49.452;8.502;2023-08-21T00:37:52;3.65;;;2.90;;
12048;SDS011;6085;49.452;8.502;2023-08-21T00:41:55;2.95;;;2.65;;
12048;SDS011;6085;49.452;8.502;2023-08-21T00:45:58;2.78;;;2.58;;
12048;SDS011;6085;49.452;8.502;2023-08-21T00:50:00;2.75;;;2.50;;
12048;SDS011;6085;49.452;8.502;2023-08-21T00:54:02;6.13;;;2.97;;
12048;SDS011;6085;49.452;8.502;2023-08-21T00:58:06;5.55;;;3.25;;
12048;SDS011;6085;49.452;8.502;2023-08-21T01:02:10;3.00;;;2.78;;
12048;SDS011;6085;49.452;8.502;2023-08-21T01:06:12;4.32;;;2.88;;
12048;SDS011;6085;49.452;8.502;2023-08-21T01:10:15;3.40;;;2.53;;
12048;SDS011;6085;49.452;8.502;2023-08-21T01:14:26;3.88;;;3.33;;
12048;SDS011;6085;49.452;8.502;2023-08-21T01:18:31;3.60;;;2.92;;
12048;SDS011;6085;49.452;8.502;2023-08-21T01:22:35;3.13;;;2.83;;
12048;SDS011;6085;49.452;8.502;2023-08-21T01:26:39;3.65;;;2.95;;
12048;SDS011;6085;49.452;8.502;2023-08-21T01:30:41;3.03;;;2.72;;
12048;SDS011;6085;49.452;8.502;2023-08-21T01:34:45;3.10;;;2.80;;
12048;SDS011;6085;49.452;8.502;2023-08-21T01:38:48;3.15;;;2.80;;
12048;SDS011;6085;49.452;8.502;2023-08-21T01:42:53;3.00;;;2.72;;
12048;SDS011;6085;49.452;8.502;2023-08-21T01:46:55;3.05;;;2.75;;
12048;SDS011;6085;49.452;8.502;2023-08-21T01:50:57;4.70;;;3.20;;
12048;SDS011;6085;49.452;8.502;2023-08-21T01:55:01;5.05;;;3.25;;
12048;SDS011;6085;49.452;8.502;2023-08-21T01:59:05;4.65;;;3.35;;
12048;SDS011;6085;49.452;8.502;2023-08-21T02:03:07;3.40;;;2.92;;
12048;SDS011;6085;49.452;8.502;2023-08-21T02:07:09;4.18;;;3.08;;
12048;SDS011;6085;49.452;8.502;2023-08-21T02:11:11;4.28;;;2.95;;
12048;SDS011;6085;49.452;8.502;2023-08-21T02:15:14;4.47;;;3.28;;
12048;SDS011;6085;49.452;8.502;2023-08-21T02:19:16;2.88;;;2.63;;
12048;SDS011;6085;49.452;8.502;2023-08-21T02:23:18;3.53;;;3.22;;
12048;SDS011;6085;49.452;8.502;2023-08-21T02:27:20;4.60;;;2.90;;
12048;SDS011;6085;49.452;8.502;2023-08-21T02:31:24;4.35;;;2.97;;
12048;SDS011;6085;49.452;8.502;2023-08-21T02:35:26;4.05;;;2.80;;
12048;SDS011;6085;49.452;8.502;2023-08-21T02:39:28;3.28;;;2.97;;
12048;SDS011;6085;49.452;8.502;2023-08-21T02:43:30;4.38;;;3.35;;
12048;SDS011;6085;49.452;8.502;2023-08-21T02:47:33;3.45;;;3.03;;
12048;SDS011;6085;49.452;8.502;2023-08-21T02:51:36;4.85;;;3.03;;
12048;SDS011;6085;49.452;8.502;2023-08-21T02:55:38;3.30;;;2.90;;
12048;SDS011;6085;49.452;8.502;2023-08-21T02:59:40;4.13;;;3.00;;
12048;SDS011;6085;49.452;8.502;2023-08-21T03:03:43;3.15;;;2.47;;
12048;SDS011;6085;49.452;8.502;2023-08-21T03:07:45;3.38;;;3.08;;
12048;SDS011;6085;49.452;8.502;2023-08-21T03:11:47;3.97;;;3.38;;
12048;SDS011;6085;49.452;8.502;2023-08-21T03:15:49;4.50;;;3.45;;
12048;SDS011;6085;49.452;8.502;2023-08-21T03:19:52;4.07;;;2.72;;
12048;SDS011;6085;49.452;8.502;2023-08-21T03:23:55;4.10;;;2.90;;
12048;SDS011;6085;49.452;8.502;2023-08-21T03:27:59;4.93;;;3.53;;
12048;SDS011;6085;49.452;8.502;2023-08-21T03:32:01;4.97;;;3.72;;
12048;SDS011;6085;49.452;8.502;2023-08-21T03:36:04;4.20;;;3.30;;
12048;SDS011;6085;49.452;8.502;2023-08-21T03:40:08;4.43;;;3.47;;
12048;SDS011;6085;49.452;8.502;2023-08-21T03:44:10;3.70;;;3.25;;
12048;SDS011;6085;49.452;8.502;2023-08-21T03:48:12;3.83;;;3.00;;
12048;SDS011;6085;49.452;8.502;2023-08-21T03:52:15;3.90;;;3.50;;
12048;SDS011;6085;49.452;8.502;2023-08-21T03:56:17;4.18;;;3.40;;
12048;SDS011;6085;49.452;8.502;2023-08-21T04:00:19;3.33;;;3.03;;
12048;SDS011;6085;49.452;8.502;2023-08-21T04:04:21;4.82;;;3.40;;
12048;SDS011;6085;49.452;8.502;2023-08-21T04:08:25;4.03;;;3.35;;
12048;SDS011;6085;49.452;8.502;2023-08-21T04:12:27;3.85;;;3.47;;
12048;SDS011;6085;49.452;8.502;2023-08-21T04:16:29;4.60;;;3.72;;
12048;SDS011;6085;49.452;8.502;2023-08-21T04:20:31;5.60;;;3.90;;
12048;SDS011;6085;49.452;8.502;2023-08-21T04:24:34;5.43;;;3.55;;
12048;SDS011;6085;49.452;8.502;2023-08-21T04:28:36;5.30;;;3.75;;
12048;SDS011;6085;49.452;8.502;2023-08-21T04:32:38;4.75;;;3.63;;
12048;SDS011;6085;49.452;8.502;2023-08-21T04:36:40;5.38;;;3.90;;
12048;SDS011;6085;49.452;8.502;2023-08-21T04:40:43;4.00;;;3.58;;
12048;SDS011;6085;49.452;8.502;2023-08-21T04:44:45;5.38;;;3.75;;
12048;SDS011;6085;49.452;8.502;2023-08-21T04:48:47;5.93;;;3.85;;
12048;SDS011;6085;49.452;8.502;2023-08-21T04:52:49;4.28;;;3.50;;
12048;SDS011;6085;49.452;8.502;2023-08-21T04:56:52;4.32;;;3.92;;
12048;SDS011;6085;49.452;8.502;2023-08-21T05:00:54;5.05;;;3.88;;
12048;SDS011;6085;49.452;8.502;2023-08-21T05:04:57;4.95;;;3.75;;
12048;SDS011;6085;49.452;8.502;2023-08-21T05:08:59;5.70;;;4.05;;
12048;SDS011;6085;49.452;8.502;2023-08-21T05:13:05;6.72;;;4.10;;
12048;SDS011;6085;49.452;8.502;2023-08-21T05:17:06;5.35;;;3.63;;
12048;SDS011;6085;49.452;8.502;2023-08-21T05:21:08;6.53;;;4.13;;
12048;SDS011;6085;49.452;8.502;2023-08-21T05:25:10;5.93;;;4.18;;
12048;SDS011;6085;49.452;8.502;2023-08-21T05:29:14;4.60;;;4.07;;
12048;SDS011;6085;49.452;8.502;2023-08-21T05:33:16;5.50;;;4.07;;
12048;SDS011;6085;49.452;8.502;2023-08-21T05:37:18;5.30;;;4.53;;
12048;SDS011;6085;49.452;8.502;2023-08-21T05:41:20;5.47;;;4.07;;
12048;SDS011;6085;49.452;8.502;2023-08-21T05:45:23;5.20;;;3.95;;
12048;SDS011;6085;49.452;8.502;2023-08-21T05:49:27;6.07;;;4.13;;
12048;SDS011;6085;49.452;8.502;2023-08-21T05:53:28;6.03;;;3.60;;
12048;SDS011;6085;49.452;8.502;2023-08-21T05:57:30;4.15;;;3.58;;
12048;SDS011;6085;49.452;8.502;2023-08-21T06:01:34;5.22;;;3.70;;
12048;SDS011;6085;49.452;8.502;2023-08-21T06:05:36;5.15;;;3.78;;
12048;SDS011;6085;49.452;8.502;2023-08-21T06:09:37;5.50;;;4.10;;
12048;SDS011;6085;49.452;8.502;2023-08-21T06:13:39;5.53;;;4.43;;
12048;SDS011;6085;49.452;8.502;2023-08-21T06:17:43;6.57;;;4.05;;
12048;SDS011;6085;49.452;8.502;2023-08-21T06:21:45;5.03;;;4.13;;
12048;SDS011;6085;49.452;8.502;2023-08-21T06:25:47;5.72;;;3.92;;
12048;SDS011;6085;49.452;8.502;2023-08-21T06:29:49;5.70;;;3.72;;
12048;SDS011;6085;49.452;8.502;2023-08-21T06:33:53;4.45;;;3.67;;
12048;SDS011;6085;49.452;8.502;2023-08-21T06:37:55;5.20;;;3.85;;
12048;SDS011;6085;49.452;8.502;2023-08-21T06:41:57;5.00;;;4.00;;
12048;SDS011;6085;49.452;8.502;2023-08-21T06:46:01;4.93;;;4.18;;
12048;SDS011;6085;49.452;8.502;2023-08-21T06:50:05;4.90;;;4.10;;
12048;SDS011;6085;49.452;8.502;2023-08-21T06:54:07;4.55;;;4.05;;
12048;SDS011;6085;49.452;8.502;2023-08-21T06:58:09;4.40;;;4.00;;
12048;SDS011;6085;49.452;8.502;2023-08-21T07:02:11;4.97;;;3.90;;
12048;SDS011;6085;49.452;8.502;2023-08-21T07:06:14;3.95;;;3.55;;
12048;SDS011;6085;49.452;8.502;2023-08-21T07:10:16;4.45;;;3.88;;
12048;SDS011;6085;49.452;8.502;2023-08-21T07:14:18;4.45;;;3.90;;
12048;SDS011;6085;49.452;8.502;2023-08-21T07:18:21;3.88;;;3.42;;
12048;SDS011;6085;49.452;8.502;2023-08-21T07:22:24;5.65;;;3.83;;
12048;SDS011;6085;49.452;8.502;2023-08-21T07:26:26;4.80;;;4.03;;
12048;SDS011;6085;49.452;8.502;2023-08-21T07:30:30;7.95;;;4.13;;
12048;SDS011;6085;49.452;8.502;2023-08-21T07:34:32;5.75;;;4.15;;
12048;SDS011;6085;49.452;8.502;2023-08-21T07:38:35;5.90;;;4.20;;
12048;SDS011;6085;49.452;8.502;2023-08-21T07:42:37;4.30;;;3.72;;
12048;SDS011;6085;49.452;8.502;2023-08-21T07:46:39;5.57;;;3.83;;
12048;SDS011;6085;49.452;8.502;2023-08-21T07:50:41;5.95;;;3.65;;
12048;SDS011;6085;49.452;8.502;2023-08-21T07:54:52;5.55;;;3.70;;
12048;SDS011;6085;49.452;8.502;2023-08-21T07:58:54;4.00;;;3.60;;
12048;SDS011;6085;49.452;8.502;2023-08-21T08:02:56;4.30;;;3.70;;
12048;SDS011;6085;49.452;8.502;2023-08-21T08:06:58;4.95;;;3.60;;
12048;SDS011;6085;49.452;8.502;2023-08-21T08:11:03;4.80;;;3.75;;
12048;SDS011;6085;49.452;8.502;2023-08-21T08:15:06;4.03;;;3.50;;
12048;SDS011;6085;49.452;8.502;2023-08-21T08:19:09;5.85;;;3.30;;
12048;SDS011;6085;49.452;8.502;2023-08-21T08:23:11;5.40;;;4.00;;
12048;SDS011;6085;49.452;8.502;2023-08-21T08:27:14;5.10;;;4.20;;
12048;SDS011;6085;49.452;8.502;2023-08-21T08:31:16;3.65;;;3.35;;
12048;SDS011;6085;49.452;8.502;2023-08-21T08:35:19;4.63;;;3.67;;
12048;SDS011;6085;49.452;8.502;2023-08-21T08:39:21;5.15;;;3.72;;
12048;SDS011;6085;49.452;8.502;2023-08-21T08:43:25;4.55;;;3.58;;
12048;SDS011;6085;49.452;8.502;2023-08-21T08:47:28;3.80;;;3.15;;
12048;SDS011;6085;49.452;8.502;2023-08-21T08:51:32;3.88;;;3.50;;
12048;SDS011;6085;49.452;8.502;2023-08-21T08:55:37;4.25;;;3.85;;
12048;SDS011;6085;49.452;8.502;2023-08-21T08:59:40;3.78;;;3.47;;
12048;SDS011;6085;49.452;8.502;2023-08-21T09:03:42;4.20;;;3.33;;
12048;SDS011;6085;49.452;8.502;2023-08-21T09:07:45;4.90;;;3.15;;
12048;SDS011;6085;49.452;8.502;2023-08-21T09:12:06;4.63;;;3.90;;
12048;SDS011;6085;49.452;8.502;2023-08-21T09:16:12;3.70;;;3.33;;
12048;SDS011;6085;49.452;8.502;2023-08-21T09:20:16;3.65;;;3.35;;
12048;SDS011;6085;49.452;8.502;2023-08-21T09:24:21;6.30;;;3.53;;
12048;SDS011;6085;49.452;8.502;2023-08-21T09:28:23;4.50;;;3.30;;
12048;SDS011;6085;49.452;8.502;2023-08-21T09:32:27;3.90;;;3.47;;
12048;SDS011;6085;49.452;8.502;2023-08-21T09:36:29;4.57;;;3.30;;
12048;SDS011;6085;49.452;8.502;2023-08-21T09:40:31;4.72;;;3.75;;
12048;SDS011;6085;49.452;8.502;2023-08-21T09:44:37;6.05;;;3.95;;
12048;SDS011;6085;49.452;8.502;2023-08-21T09:48:41;5.95;;;3.50;;
12048;SDS011;6085;49.452;8.502;2023-08-21T09:52:44;3.22;;;2.97;;
12048;SDS011;6085;49.452;8.502;2023-08-21T09:56:46;4.15;;;3.20;;
12048;SDS011;6085;49.452;8.502;2023-08-21T10:00:50;3.80;;;3.50;;
12048;SDS011;6085;49.452;8.502;2023-08-21T10:04:58;3.42;;;3.05;;
12048;SDS011;6085;49.452;8.502;2023-08-21T10:09:01;4.85;;;3.40;;
12048;SDS011;6085;49.452;8.502;2023-08-21T10:13:03;3.83;;;3.05;;
12048;SDS011;6085;49.452;8.502;2023-08-21T10:17:08;3.00;;;2.80;;
12048;SDS011;6085;49.452;8.502;2023-08-21T10:21:12;2.90;;;2.60;;
12048;SDS011;6085;49.452;8.502;2023-08-21T10:25:15;5.13;;;3.28;;
12048;SDS011;6085;49.452;8.502;2023-08-21T10:29:20;3.97;;;2.50;;
12048;SDS011;6085;49.452;8.502;2023-08-21T10:38:09;2.88;;;2.67;;
12048;SDS011;6085;49.452;8.502;2023-08-21T10:42:12;3.88;;;2.63;;
12048;SDS011;6085;49.452;8.502;2023-08-21T10:46:15;3.15;;;2.65;;
12048;SDS011;6085;49.452;8.502;2023-08-21T10:50:17;2.92;;;2.67;;
12048;SDS011;6085;49.452;8.502;2023-08-21T10:54:21;2.60;;;2.40;;
12048;SDS011;6085;49.452;8.502;2023-08-21T10:58:23;2.83;;;2.45;;
12048;SDS011;6085;49.452;8.502;2023-08-21T11:02:25;2.70;;;2.50;;
12048;SDS011;6085;49.452;8.502;2023-08-21T11:06:29;2.75;;;2.47;;
12048;SDS011;6085;49.452;8.502;2023-08-21T11:10:32;3.25;;;2.60;;
12048;SDS011;6085;49.452;8.502;2023-08-21T11:14:35;2.83;;;2.05;;
12048;SDS011;6085;49.452;8.502;2023-08-21T11:18:38;3.33;;;2.45;;
12048;SDS011;6085;49.452;8.502;2023-08-21T11:22:40;2.83;;;2.58;;
12048;SDS011;6085;49.452;8.502;2023-08-21T11:26:44;2.75;;;2.33;;
12048;SDS011;6085;49.452;8.502;2023-08-21T11:30:46;3.65;;;2.30;;
12048;SDS011;6085;49.452;8.502;2023-08-21T11:34:48;2.85;;;2.63;;
12048;SDS011;6085;49.452;8.502;2023-08-21T11:38:57;2.67;;;2.45;;
12048;SDS011;6085;49.452;8.502;2023-08-21T11:43:02;2.58;;;2.38;;
12048;SDS011;6085;49.452;8.502;2023-08-21T11:47:05;2.35;;;2.17;;
12048;SDS011;6085;49.452;8.502;2023-08-21T11:51:07;2.70;;;2.47;;
12048;SDS011;6085;49.452;8.502;2023-08-21T11:55:09;2.78;;;2.50;;
12048;SDS011;6085;49.452;8.502;2023-08-21T11:59:22;3.45;;;2.58;;
12048;SDS011;6085;49.452;8.502;2023-08-21T12:03:24;2.60;;;2.40;;
12048;SDS011;6085;49.452;8.502;2023-08-21T12:07:26;2.47;;;2.28;;
12048;SDS011;6085;49.452;8.502;2023-08-21T12:11:28;3.08;;;2.55;;
12048;SDS011;6085;49.452;8.502;2023-08-21T12:15:31;2.58;;;2.38;;
12048;SDS011;6085;49.452;8.502;2023-08-21T12:19:33;2.60;;;2.35;;
12048;SDS011;6085;49.452;8.502;2023-08-21T12:23:35;4.30;;;2.53;;
12048;SDS011;6085;49.452;8.502;2023-08-21T12:27:37;3.03;;;2.60;;
12048;SDS011;6085;49.452;8.502;2023-08-21T12:31:40;3.63;;;2.78;;
12048;SDS011;6085;49.452;8.502;2023-08-21T12:35:42;2.90;;;2.55;;
12048;SDS011;6085;49.452;8.502;2023-08-21T12:39:44;2.88;;;2.63;;
12048;SDS011;6085;49.452;8.502;2023-08-21T12:43:46;4.70;;;2.40;;
12048;SDS011;6085;49.452;8.502;2023-08-21T12:47:49;2.65;;;2.30;;
12048;SDS011;6085;49.452;8.502;2023-08-21T12:51:51;3.20;;;2.53;;
12048;SDS011;6085;49.452;8.502;2023-08-21T12:55:53;3.95;;;2.35;;
12048;SDS011;6085;49.452;8.502;2023-08-21T12:59:55;3.47;;;2.33;;
12048;SDS011;6085;49.452;8.502;2023-08-21T13:03:59;2.55;;;2.35;;
12048;SDS011;6085;49.452;8.502;2023-08-21T13:08:01;2.55;;;2.25;;
12048;SDS011;6085;49.452;8.502;2023-08-21T13:12:04;2.10;;;1.90;;
12048;SDS011;6085;49.452;8.502;2023-08-21T13:16:06;2.35;;;2.15;;
12048;SDS011;6085;49.452;8.502;2023-08-21T13:20:10;2.22;;;2.03;;
12048;SDS011;6085;49.452;8.502;2023-08-21T13:24:12;1.98;;;1.88;;
12048;SDS011;6085;49.452;8.502;2023-08-21T13:28:14;2.50;;;2.30;;
12048;SDS011;6085;49.452;8.502;2023-08-21T13:32:16;2.45;;;1.92;;
12048;SDS011;6085;49.452;8.502;2023-08-21T13:36:20;2.38;;;2.17;;
12048;SDS011;6085;49.452;8.502;2023-08-21T13:40:23;2.20;;;2.00;;
12048;SDS011;6085;49.452;8.502;2023-08-21T13:44:25;3.58;;;2.10;;
12048;SDS011;6085;49.452;8.502;2023-08-21T13:48:27;2.08;;;1.85;;
12048;SDS011;6085;49.452;8.502;2023-08-21T13:52:30;2.10;;;1.90;;
12048;SDS011;6085;49.452;8.502;2023-08-21T13:56:33;2.40;;;2.20;;
12048;SDS011;6085;49.452;8.502;2023-08-21T14:00:37;2.40;;;2.20;;
12048;SDS011;6085;49.452;8.502;2023-08-21T14:04:38;2.20;;;2.00;;
12048;SDS011;6085;49.452;8.502;2023-08-21T14:08:42;3.05;;;2.03;;
12048;SDS011;6085;49.452;8.502;2023-08-21T14:12:44;2.20;;;1.90;;
12048;SDS011;6085;49.452;8.502;2023-08-21T14:16:46;2.30;;;2.03;;
12048;SDS011;6085;49.452;8.502;2023-08-21T14:20:48;2.15;;;2.00;;
12048;SDS011;6085;49.452;8.502;2023-08-21T14:24:51;4.32;;;2.30;;
12048;SDS011;6085;49.452;8.502;2023-08-21T14:28:53;2.00;;;1.90;;
12048;SDS011;6085;49.452;8.502;2023-08-21T14:32:55;2.60;;;2.20;;
12048;SDS011;6085;49.452;8.502;2023-08-21T14:36:57;2.00;;;1.90;;
12048;SDS011;6085;49.452;8.502;2023-08-21T14:41:01;2.05;;;1.90;;
12048;SDS011;6085;49.452;8.502;2023-08-21T14:45:03;3.00;;;2.20;;
12048;SDS011;6085;49.452;8.502;2023-08-21T14:49:06;2.78;;;2.10;;
12048;SDS011;6085;49.452;8.502;2023-08-21T14:53:11;2.53;;;2.10;;
12048;SDS011;6085;49.452;8.502;2023-08-21T14:57:14;2.35;;;1.88;;
12048;SDS011;6085;49.452;8.502;2023-08-21T15:01:16;2.05;;;1.90;;
12048;SDS011;6085;49.452;8.502;2023-08-21T15:05:19;2.25;;;2.05;;
12048;SDS011;6085;49.452;8.502;2023-08-21T15:09:22;2.20;;;2.00;;
12048;SDS011;6085;49.452;8.502;2023-08-21T15:13:25;2.00;;;1.90;;
12048;SDS011;6085;49.452;8.502;2023-08-21T15:17:30;2.22;;;2.03;;
12048;SDS011;6085;49.452;8.502;2023-08-21T15:21:32;2.08;;;1.90;;
12048;SDS011;6085;49.452;8.502;2023-08-21T15:25:34;2.13;;;1.90;;
12048;SDS011;6085;49.452;8.502;2023-08-21T15:29:37;2.15;;;1.90;;
12048;SDS011;6085;49.452;8.502;2023-08-21T15:33:39;1.95;;;1.80;;
12048;SDS011;6085;49.452;8.502;2023-08-21T15:37:42;1.77;;;1.67;;
12048;SDS011;6085;49.452;8.502;2023-08-21T15:41:45;2.20;;;2.00;;
12048;SDS011;6085;49.452;8.502;2023-08-21T15:45:48;1.73;;;1.63;;
12048;SDS011;6085;49.452;8.502;2023-08-21T15:49:52;1.73;;;1.63;;
12048;SDS011;6085;49.452;8.502;2023-08-21T15:53:54;1.80;;;1.70;;
12048;SDS011;6085;49.452;8.502;2023-08-21T15:57:56;2.30;;;1.77;;
12048;SDS011;6085;49.452;8.502;2023-08-21T16:01:59;1.98;;;1.88;;
12048;SDS011;6085;49.452;8.502;2023-08-21T16:06:01;1.75;;;1.65;;
12048;SDS011;6085;49.452;8.502;2023-08-21T16:10:03;1.60;;;1.50;;
12048;SDS011;6085;49.452;8.502;2023-08-21T16:14:06;1.65;;;1.55;;
12048;SDS011;6085;49.452;8.502;2023-08-21T16:18:09;2.47;;;1.75;;
12048;SDS011;6085;49.452;8.502;2023-08-21T16:22:11;1.90;;;1.70;;
12048;SDS011;6085;49.452;8.502;2023-08-21T16:26:13;1.67;;;1.58;;
12048;SDS011;6085;49.452;8.502;2023-08-21T16:30:15;2.20;;;1.67;;
12048;SDS011;6085;49.452;8.502;2023-08-21T16:34:18;2.20;;;1.42;;
12048;SDS011;6085;49.452;8.502;2023-08-21T16:38:21;1.65;;;1.55;;
12048;SDS011;6085;49.452;8.502;2023-08-21T16:42:23;1.70;;;1.60;;
12048;SDS011;6085;49.452;8.502;2023-08-21T16:46:24;1.90;;;1.80;;
12048;SDS011;6085;49.452;8.502;2023-08-21T16:50:28;1.58;;;1.48;;
12048;SDS011;6085;49.452;8.502;2023-08-21T16:54:30;1.75;;;1.52;;
12048;SDS011;6085;49.452;8.502;2023-08-21T16:58:32;1.67;;;1.58;;
12048;SDS011;6085;49.452;8.502;2023-08-21T17:02:34;1.30;;;1.27;;
12048;SDS011;6085;49.452;8.502;2023-08-21T17:06:38;1.35;;;1.30;;
12048;SDS011;6085;49.452;8.502;2023-08-21T17:10:40;1.40;;;1.40;;
12048;SDS011;6085;49.452;8.502;2023-08-21T17:14:42;1.70;;;1.60;;
12048;SDS011;6085;49.452;8.502;2023-08-21T17:18:45;1.40;;;1.30;;
12048;SDS011;6085;49.452;8.502;2023-08-21T17:22:48;1.25;;;1.15;;
12048;SDS011;6085;49.452;8.502;2023-08-21T17:26:50;1.17;;;1.17;;
12048;SDS011;6085;49.452;8.502;2023-08-21T17:30:53;1.35;;;1.20;;
12048;SDS011;6085;49.452;8.502;2023-08-21T17:34:55;1.50;;;1.40;;
12048;SDS011;6085;49.452;8.502;2023-08-21T17:38:58;1.35;;;1.25;;
12048;SDS011;6085;49.452;8.502;2023-08-21T17:43:00;1.40;;;1.30;;
12048;SDS011;6085;49.452;8.502;2023-08-21T17:47:02;1.30;;;1.00;;
12048;SDS011;6085;49.452;8.502;2023-08-21T17:51:05;1.20;;;1.20;;
12048;SDS011;6085;49.452;8.502;2023-08-21T17:55:08;1.30;;;1.20;;
12048;SDS011;6085;49.452;8.502;2023-08-21T17:59:10;1.23;;;1.13;;
12048;SDS011;6085;49.452;8.502;2023-08-21T18:03:12;1.13;;;1.13;;
12048;SDS011;6085;49.452;8.502;2023-08-21T18:07:14;1.50;;;1.40;;
12048;SDS011;6085;49.452;8.502;2023-08-21T18:11:17;1.45;;;1.35;;
12048;SDS011;6085;49.452;8.502;2023-08-21T18:15:19;1.45;;;1.33;;
12048;SDS011;6085;49.452;8.502;2023-08-21T18:19:21;1.40;;;1.30;;
12048;SDS011;6085;49.452;8.502;2023-08-21T18:23:24;1.50;;;1.40;;
12048;SDS011;6085;49.452;8.502;2023-08-21T18:27:29;1.55;;;1.45;;
12048;SDS011;6085;49.452;8.502;2023-08-21T18:31:31;1.20;;;1.17;;
12048;SDS011;6085;49.452;8.502;2023-08-21T18:35:36;2.20;;;1.63;;
12048;SDS011;6085;49.452;8.502;2023-08-21T18:39:38;2.33;;;1.48;;
12048;SDS011;6085;49.452;8.502;2023-08-21T18:43:41;1.33;;;1.23;;
12048;SDS011;6085;49.452;8.502;2023-08-21T18:47:43;1.52;;;1.42;;
12048;SDS011;6085;49.452;8.502;2023-08-21T18:51:45;1.70;;;1.60;;
12048;SDS011;6085;49.452;8.502;2023-08-21T18:55:47;1.73;;;1.63;;
12048;SDS011;6085;49.452;8.502;2023-08-21T18:59:50;1.88;;;1.58;;
12048;SDS011;6085;49.452;8.502;2023-08-21T19:03:52;1.90;;;1.60;;
12048;SDS011;6085;49.452;8.502;2023-08-21T19:07:54;1.67;;;1.58;;
12048;SDS011;6085;49.452;8.502;2023-08-21T19:11:58;1.80;;;1.70;;
12048;SDS011;6085;49.452;8.502;2023-08-21T19:16:03;1.75;;;1.52;;
12048;SDS011;6085;49.452;8.502;2023-08-21T19:20:06;1.60;;;1.50;;
12048;SDS011;6085;49.452;8.502;2023-08-21T19:24:08;1.55;;;1.45;;
12048;SDS011;6085;49.452;8.502;2023-08-21T19:28:10;1.50;;;1.33;;
12048;SDS011;6085;49.452;8.502;2023-08-21T19:32:16;1.50;;;1.40;;
12048;SDS011;6085;49.452;8.502;2023-08-21T19:36:18;1.83;;;1.60;;
12048;SDS011;6085;49.452;8.502;2023-08-21T19:40:20;3.10;;;1.60;;
12048;SDS011;6085;49.452;8.502;2023-08-21T19:44:22;2.58;;;1.85;;
12048;SDS011;6085;49.452;8.502;2023-08-21T19:48:25;2.13;;;1.60;;
12048;SDS011;6085;49.452;8.502;2023-08-21T19:52:27;1.55;;;1.45;;
12048;SDS011;6085;49.452;8.502;2023-08-21T19:56:29;1.70;;;1.60;;
12048;SDS011;6085;49.452;8.502;2023-08-21T20:00:31;1.88;;;1.50;;
12048;SDS011;6085;49.452;8.502;2023-08-21T20:04:34;1.67;;;1.58;;
12048;SDS011;6085;49.452;8.502;2023-08-21T20:08:36;2.15;;;1.95;;
12048;SDS011;6085;49.452;8.502;2023-08-21T20:12:38;2.72;;;2.40;;
12048;SDS011;6085;49.452;8.502;2023-08-21T20:16:40;2.70;;;2.22;;
12048;SDS011;6085;49.452;8.502;2023-08-21T20:20:44;2.60;;;2.20;;
12048;SDS011;6085;49.452;8.502;2023-08-21T20:24:47;2.53;;;2.33;;
12048;SDS011;6085;49.452;8.502;2023-08-21T20:28:49;3.03;;;1.83;;
12048;SDS011;6085;49.452;8.502;2023-08-21T20:32:51;2.40;;;2.20;;
12048;SDS011;6085;49.452;8.502;2023-08-21T20:36:55;2.20;;;2.10;;
12048;SDS011;6085;49.452;8.502;2023-08-21T20:41:00;3.17;;;2.20;;
12048;SDS011;6085;49.452;8.502;2023-08-21T20:45:04;2.33;;;2.15;;
12048;SDS011;6085;49.452;8.502;2023-08-21T20:49:09;2.85;;;2.33;;
12048;SDS011;6085;49.452;8.502;2023-08-21T20:53:16;3.10;;;2.17;;
12048;SDS011;6085;49.452;8.502;2023-08-21T20:57:19;2.00;;;1.90;;
12048;SDS011;6085;49.452;8.502;2023-08-21T21:01:24;2.38;;;2.10;;
12048;SDS011;6085;49.452;8.502;2023-08-21T21:05:26;2.38;;;2.17;;
12048;SDS011;6085;49.452;8.502;2023-08-21T21:09:29;2.42;;;2.20;;
12048;SDS011;6085;49.452;8.502;2023-08-21T21:13:32;2.53;;;2.13;;
12048;SDS011;6085;49.452;8.502;2023-08-21T21:17:34;2.47;;;2.28;;
12048;SDS011;6085;49.452;8.502;2023-08-21T21:21:36;2.03;;;1.88;;
12048;SDS011;6085;49.452;8.502;2023-08-21T21:25:39;2.40;;;2.20;;
12048;SDS011;6085;49.452;8.502;2023-08-21T21:29:41;2.92;;;2.63;;
12048;SDS011;6085;49.452;8.502;2023-08-21T21:33:43;2.60;;;2.40;;
12048;SDS011;6085;49.452;8.502;2023-08-21T21:37:46;2.70;;;2.28;;
12048;SDS011;6085;49.452;8.502;2023-08-21T21:41:49;3.60;;;2.65;;
12048;SDS011;6085;49.452;8.502;2023-08-21T21:45:53;3.22;;;2.40;;
12048;SDS011;6085;49.452;8.502;2023-08-21T21:49:56;2.92;;;2.45;;
12048;SDS011;6085;49.452;8.502;2023-08-21T21:53:58;3.65;;;2.70;;
12048;SDS011;6085;49.452;8.502;2023-08-21T21:58:02;4.15;;;3.10;;
12048;SDS011;6085;49.452;8.502;2023-08-21T22:02:04;3.22;;;2.83;;
12048;SDS011;6085;49.452;8.502;2023-08-21T22:06:06;3.55;;;3.00;;
12048;SDS011;6085;49.452;8.502;2023-08-21T22:10:09;4.88;;;3.55;;
12048;SDS011;6085;49.452;8.502;2023-08-21T22:14:12;4.32;;;3.25;;
12048;SDS011;6085;49.452;8.502;2023-08-21T22:18:15;3.67;;;3.38;;
12048;SDS011;6085;49.452;8.502;2023-08-21T22:22:20;3.55;;;3.25;;
12048;SDS011;6085;49.452;8.502;2023-08-21T22:26:22;4.32;;;3.92;;
12048;SDS011;6085;49.452;8.502;2023-08-21T22:30:26;3.78;;;3.47;;
12048;SDS011;6085;49.452;8.502;2023-08-21T22:34:37;5.07;;;3.88;;
12048;SDS011;6085;49.452;8.502;2023-08-21T22:38:39;5.18;;;4.13;;
12048;SDS011;6085;49.452;8.502;2023-08-21T22:42:41;4.40;;;4.00;;
12048;SDS011;6085;49.452;8.502;2023-08-21T22:46:44;5.57;;;4.45;;
12048;SDS011;6085;49.452;8.502;2023-08-21T22:50:48;4.57;;;3.67;;
12048;SDS011;6085;49.452;8.502;2023-08-21T22:54:50;4.78;;;3.97;;
12048;SDS011;6085;49.452;8.502;2023-08-21T22:58:53;5.60;;;4.30;;
12048;SDS011;6085;49.452;8.502;2023-08-21T23:02:56;4.28;;;3.88;;
12048;SDS011;6085;49.452;8.502;2023-08-21T23:06:58;4.22;;;3.83;;
12048;SDS011;6085;49.452;8.502;2023-08-21T23:11:00;3.65;;;3.35;;
12048;SDS011;6085;49.452;8.502;2023-08-21T23:15:02;4.68;;;3.60;;
12048;SDS011;6085;49.452;8.502;2023-08-21T23:19:06;3.70;;;3.40;;
12048;SDS011;6085;49.452;8.502;2023-08-21T23:23:08;4.93;;;3.75;;
12048;SDS011;6085;49.452;8.502;2023-08-21T23:27:10;4.97;;;4.07;;
12048;SDS011;6085;49.452;8.502;2023-08-21T23:31:12;4.10;;;3.70;;
12048;SDS011;6085;49.452;8.502;2023-08-21T23:35:16;3.65;;;3.35;;
12048;SDS011;6085;49.452;8.502;2023-08-21T23:39:18;4.20;;;3.80;;
12048;SDS011;6085;49.452;8.502;2023-08-21T23:43:21;4.15;;;3.75;;
12048;SDS011;6085;49.452;8.502;2023-08-21T23:47:23;4.82;;;4.18;;
12048;SDS011;6085;49.452;8.502;2023-08-21T23:51:26;4.75;;;4.35;;
12048;SDS011;6085;49.452;8.502;2023-08-21T23:55:28;4.57;;;4.07;;
12048;SDS011;6085;49.452;8.502;2023-08-21T23:59:30;5.88;;;4.60;;
